Check out our new PWSWeather beta!
PWSweather.com
Personal Weather Stations
Station Observations

ChardChardGB

Lat: 50.877408, Lon: -2.94964741

Elevation: 341

Station Type: WS3083

http://www.merriott-astro.co.uk/weather/index.htm

High Low Average
Temperature 49.5°F9.7°C 35.4°F1.9°C 41.7°F5.4°C
Dew Point 39.9°F4.4°C 29.7°F-1.3°C 35.0°F1.7°C
Winds 14.1 mph 22.7 kmh Calm Calm 5.0 mph S8.0 kmh S
Wind Gusts 19.7 mph31.7 kmh -- 7.0 mph11.3 kmh
Humidity 82% 61% 77%
Pressure 29.42 in996.3 mb 29.13 in986.5 mb -
Precipitation 0.25 in6.4 mm - -
Hour Temp Dew Point Humidity Winds Wind Gusts Pressure Precip Precip Rate Daily Precip Total
12:00 AM 38.8°F3.8°C 30.6°F-0.8°C 72% 1.4 mph S2.3 kmh S 3.1 mph5.0 kmh 29.42 in996.3 mb 0.00 in0.0 mm 0.00 in0.0 mm 0.00 in0.0 mm
12:10 AM 38.8°F3.8°C 30.6°F-0.8°C 72% 2.9 mph S4.7 kmh S 3.8 mph6.1 kmh 29.42 in996.3 mb 0.00 in0.0 mm 0.00 in0.0 mm 0.00 in0.0 mm
12:20 AM 38.8°F3.8°C 30.9°F-0.6°C 73% 3.7 mph S6.0 kmh S 3.8 mph6.1 kmh 29.42 in996.3 mb 0.00 in0.0 mm 0.00 in0.0 mm 0.00 in0.0 mm
12:30 AM 38.8°F3.8°C 30.9°F-0.6°C 73% 3.0 mph S4.8 kmh S 4.5 mph7.2 kmh 29.41 in995.9 mb 0.00 in0.0 mm 0.00 in0.0 mm 0.00 in0.0 mm
12:40 AM 38.7°F3.7°C 30.8°F-0.7°C 73% 2.9 mph S4.7 kmh S 4.5 mph7.2 kmh 29.41 in995.9 mb 0.00 in0.0 mm 0.00 in0.0 mm 0.00 in0.0 mm
12:50 AM 38.5°F3.6°C 30.6°F-0.8°C 73% 0.5 mph S0.8 kmh S 1.6 mph2.6 kmh 29.41 in995.9 mb 0.00 in0.0 mm 0.00 in0.0 mm 0.00 in0.0 mm
01:00 AM 38.1°F3.4°C 29.9°F-1.2°C 72% 0.6 mph S1.0 kmh S 3.1 mph5.0 kmh 29.40 in995.6 mb 0.00 in0.0 mm 0.00 in0.0 mm 0.00 in0.0 mm
01:10 AM 37.9°F3.3°C 29.7°F-1.3°C 72% Calm Calm -- 29.40 in995.6 mb 0.00 in0.0 mm 0.00 in0.0 mm 0.00 in0.0 mm
01:20 AM 38.1°F3.4°C 30.2°F-1.0°C 73% 1.6 mph SE2.6 kmh SE 3.8 mph6.1 kmh 29.39 in995.3 mb 0.00 in0.0 mm 0.00 in0.0 mm 0.00 in0.0 mm
01:30 AM 38.1°F3.4°C 30.6°F-0.8°C 74% 1.6 mph ESE2.6 kmh ESE 2.2 mph3.5 kmh 29.38 in994.9 mb 0.00 in0.0 mm 0.00 in0.0 mm 0.00 in0.0 mm
01:40 AM 38.3°F3.5°C 30.8°F-0.7°C 74% 1.3 mph SE2.1 kmh SE 2.2 mph3.5 kmh 29.38 in994.9 mb 0.00 in0.0 mm 0.00 in0.0 mm 0.00 in0.0 mm
01:50 AM 38.3°F3.5°C 30.8°F-0.7°C 74% 1.1 mph SSE1.8 kmh SSE 2.2 mph3.5 kmh 29.39 in995.3 mb 0.00 in0.0 mm 0.00 in0.0 mm 0.00 in0.0 mm
02:00 AM 38.3°F3.5°C 31.1°F-0.5°C 75% 0.6 mph S1.0 kmh S 3.1 mph5.0 kmh 29.38 in994.9 mb 0.00 in0.0 mm 0.00 in0.0 mm 0.00 in0.0 mm
02:10 AM 38.5°F3.6°C 31.3°F-0.4°C 75% 0.4 mph SSW0.6 kmh SSW 3.1 mph5.0 kmh 29.38 in994.9 mb 0.00 in0.0 mm 0.00 in0.0 mm 0.00 in0.0 mm
02:20 AM 39.0°F3.9°C 32.1°F0.1°C 76% 3.3 mph WSW5.3 kmh WSW 6.9 mph11.1 kmh 29.38 in994.9 mb 0.01 in0.3 mm 0.06 in1.5 mm 0.01 in0.3 mm
02:30 AM 39.6°F4.2°C 33.6°F0.9°C 79% 4.7 mph S7.6 kmh S 6.9 mph11.1 kmh 29.37 in994.6 mb 0.01 in0.3 mm 0.00 in0.0 mm 0.01 in0.3 mm
02:40 AM 39.4°F4.1°C 33.4°F0.8°C 79% 2.1 mph E3.4 kmh E 4.5 mph7.2 kmh 29.36 in994.2 mb 0.01 in0.3 mm 0.00 in0.0 mm 0.01 in0.3 mm
02:50 AM 39.0°F3.9°C 33.1°F0.6°C 79% 1.3 mph S2.1 kmh S 2.2 mph3.5 kmh 29.36 in994.2 mb 0.01 in0.3 mm 0.00 in0.0 mm 0.01 in0.3 mm
03:00 AM 39.0°F3.9°C 33.1°F0.6°C 79% 1.1 mph S1.8 kmh S 3.1 mph5.0 kmh 29.36 in994.2 mb 0.01 in0.3 mm 0.00 in0.0 mm 0.01 in0.3 mm
03:10 AM 39.0°F3.9°C 33.4°F0.8°C 80% 2.0 mph SE3.2 kmh SE 5.4 mph8.7 kmh 29.35 in993.9 mb 0.01 in0.3 mm 0.00 in0.0 mm 0.01 in0.3 mm
03:20 AM 39.2°F4.0°C 33.6°F0.9°C 80% 1.3 mph ESE2.1 kmh ESE 3.1 mph5.0 kmh 29.35 in993.9 mb 0.00 in0.0 mm 0.00 in0.0 mm 0.01 in0.3 mm
03:30 AM 39.4°F4.1°C 33.7°F0.9°C 80% 0.1 mph SE0.2 kmh SE 1.6 mph2.6 kmh 29.34 in993.6 mb 0.00 in0.0 mm 0.00 in0.0 mm 0.01 in0.3 mm
03:40 AM 39.4°F4.1°C 33.7°F0.9°C 80% Calm Calm -- 29.34 in993.6 mb 0.00 in0.0 mm 0.00 in0.0 mm 0.01 in0.3 mm
03:50 AM 39.4°F4.1°C 33.7°F0.9°C 80% 0.1 mph SE0.2 kmh SE 3.8 mph6.1 kmh 29.34 in993.6 mb 0.00 in0.0 mm 0.00 in0.0 mm 0.01 in0.3 mm
04:00 AM 39.6°F4.2°C 33.9°F1.1°C 80% 2.7 mph S4.3 kmh S 3.8 mph6.1 kmh 29.33 in993.2 mb 0.00 in0.0 mm 0.00 in0.0 mm 0.01 in0.3 mm
04:10 AM 39.7°F4.3°C 34.4°F1.3°C 81% 2.7 mph S4.3 kmh S 5.4 mph8.7 kmh 29.32 in992.9 mb 0.00 in0.0 mm 0.00 in0.0 mm 0.01 in0.3 mm
04:20 AM 39.9°F4.4°C 34.6°F1.4°C 81% 1.3 mph SSW2.1 kmh SSW 3.1 mph5.0 kmh 29.32 in992.9 mb 0.00 in0.0 mm 0.00 in0.0 mm 0.01 in0.3 mm
04:30 AM 39.9°F4.4°C 34.6°F1.4°C 81% 0.2 mph S0.3 kmh S 1.6 mph2.6 kmh 29.31 in992.6 mb 0.00 in0.0 mm 0.00 in0.0 mm 0.01 in0.3 mm
04:40 AM 40.1°F4.5°C 34.7°F1.5°C 81% 0.1 mph SSE0.2 kmh SSE 0.7 mph1.1 kmh 29.31 in992.6 mb 0.00 in0.0 mm 0.00 in0.0 mm 0.01 in0.3 mm
04:50 AM 40.3°F4.6°C 34.9°F1.6°C 81% 1.1 mph SSE1.8 kmh SSE 3.8 mph6.1 kmh 29.31 in992.6 mb 0.00 in0.0 mm 0.00 in0.0 mm 0.01 in0.3 mm
05:00 AM 40.5°F4.7°C 35.1°F1.7°C 81% 1.4 mph SSW2.3 kmh SSW 3.1 mph5.0 kmh 29.31 in992.6 mb 0.00 in0.0 mm 0.00 in0.0 mm 0.01 in0.3 mm
05:10 AM 40.6°F4.8°C 35.3°F1.8°C 81% 2.0 mph SSW3.2 kmh SSW 3.1 mph5.0 kmh 29.31 in992.6 mb 0.00 in0.0 mm 0.00 in0.0 mm 0.01 in0.3 mm
05:20 AM 40.6°F4.8°C 35.3°F1.8°C 81% 0.1 mph WSW0.2 kmh WSW 1.6 mph2.6 kmh 29.30 in992.2 mb 0.00 in0.0 mm 0.00 in0.0 mm 0.01 in0.3 mm
05:30 AM 40.8°F4.9°C 35.8°F2.1°C 82% 2.3 mph S3.7 kmh S 6.0 mph9.7 kmh 29.30 in992.2 mb 0.00 in0.0 mm 0.00 in0.0 mm 0.01 in0.3 mm
05:40 AM 41.0°F5.0°C 35.9°F2.2°C 82% 6.9 mph SW11.1 kmh SW 9.2 mph14.8 kmh 29.29 in991.9 mb 0.01 in0.3 mm 0.06 in1.5 mm 0.02 in0.5 mm
05:50 AM 40.8°F4.9°C 35.8°F2.1°C 82% 5.2 mph SSW8.4 kmh SSW 6.9 mph11.1 kmh 29.29 in991.9 mb 0.01 in0.3 mm 0.00 in0.0 mm 0.02 in0.5 mm
06:00 AM 40.6°F4.8°C 35.6°F2.0°C 82% 3.2 mph SSW5.1 kmh SSW 6.0 mph9.7 kmh 29.29 in991.9 mb 0.01 in0.3 mm 0.00 in0.0 mm 0.02 in0.5 mm
06:10 AM 40.6°F4.8°C 35.3°F1.8°C 81% 0.5 mph S0.8 kmh S 3.8 mph6.1 kmh 29.29 in991.9 mb 0.01 in0.3 mm 0.00 in0.0 mm 0.02 in0.5 mm
06:20 AM 40.6°F4.8°C 35.3°F1.8°C 81% 2.9 mph SSW4.7 kmh SSW 4.5 mph7.2 kmh 29.29 in991.9 mb 0.01 in0.3 mm 0.00 in0.0 mm 0.02 in0.5 mm
06:30 AM 40.6°F4.8°C 35.6°F2.0°C 82% 2.9 mph S4.7 kmh S 4.5 mph7.2 kmh 29.28 in991.5 mb 0.01 in0.3 mm 0.00 in0.0 mm 0.02 in0.5 mm
06:40 AM 41.0°F5.0°C 35.9°F2.2°C 82% 2.8 mph S4.5 kmh S 3.8 mph6.1 kmh 29.28 in991.5 mb 0.00 in0.0 mm 0.00 in0.0 mm 0.02 in0.5 mm
06:50 AM 41.4°F5.2°C 36.3°F2.4°C 82% 3.0 mph SSE4.8 kmh SSE 4.5 mph7.2 kmh 29.29 in991.9 mb 0.00 in0.0 mm 0.00 in0.0 mm 0.02 in0.5 mm
07:00 AM 41.5°F5.3°C 36.5°F2.5°C 82% 1.1 mph S1.8 kmh S 3.1 mph5.0 kmh 29.29 in991.9 mb 0.00 in0.0 mm 0.00 in0.0 mm 0.02 in0.5 mm
07:10 AM 42.1°F5.6°C 37.0°F2.8°C 82% 0.8 mph S1.3 kmh S 2.2 mph3.5 kmh 29.27 in991.2 mb 0.00 in0.0 mm 0.00 in0.0 mm 0.02 in0.5 mm
07:20 AM 42.6°F5.9°C 37.5°F3.1°C 82% 2.0 mph SSE3.2 kmh SSE 5.4 mph8.7 kmh 29.27 in991.2 mb 0.00 in0.0 mm 0.00 in0.0 mm 0.02 in0.5 mm
07:30 AM 42.8°F6.0°C 37.7°F3.2°C 82% 1.5 mph SSE2.4 kmh SSE 3.8 mph6.1 kmh 29.27 in991.2 mb 0.00 in0.0 mm 0.00 in0.0 mm 0.02 in0.5 mm
07:40 AM 43.0°F6.1°C 37.9°F3.3°C 82% 2.1 mph SSE3.4 kmh SSE 4.5 mph7.2 kmh 29.27 in991.2 mb 0.00 in0.0 mm 0.00 in0.0 mm 0.02 in0.5 mm
07:50 AM 43.2°F6.2°C 37.7°F3.2°C 81% 3.3 mph S5.3 kmh S 7.6 mph12.2 kmh 29.26 in990.9 mb 0.00 in0.0 mm 0.00 in0.0 mm 0.02 in0.5 mm
08:00 AM 43.3°F6.3°C 37.9°F3.3°C 81% 2.6 mph SSE4.2 kmh SSE 5.4 mph8.7 kmh 29.25 in990.5 mb 0.00 in0.0 mm 0.00 in0.0 mm 0.02 in0.5 mm
08:10 AM 43.3°F6.3°C 37.9°F3.3°C 81% 3.2 mph S5.1 kmh S 6.0 mph9.7 kmh 29.25 in990.5 mb 0.00 in0.0 mm 0.00 in0.0 mm 0.02 in0.5 mm
08:20 AM 43.5°F6.4°C 38.1°F3.4°C 81% 3.2 mph SSE5.1 kmh SSE 6.0 mph9.7 kmh 29.23 in989.8 mb 0.00 in0.0 mm 0.00 in0.0 mm 0.02 in0.5 mm
08:30 AM 43.7°F6.5°C 38.3°F3.5°C 81% 3.4 mph SW5.5 kmh SW 6.0 mph9.7 kmh 29.24 in990.2 mb 0.00 in0.0 mm 0.00 in0.0 mm 0.02 in0.5 mm
08:40 AM 43.9°F6.6°C 38.1°F3.4°C 80% 4.7 mph SE7.6 kmh SE 6.9 mph11.1 kmh 29.24 in990.2 mb 0.00 in0.0 mm 0.00 in0.0 mm 0.02 in0.5 mm
08:50 AM 43.9°F6.6°C 38.1°F3.4°C 80% 3.5 mph ESE5.6 kmh ESE 5.4 mph8.7 kmh 29.23 in989.8 mb 0.00 in0.0 mm 0.00 in0.0 mm 0.02 in0.5 mm
09:00 AM 44.1°F6.7°C 38.3°F3.5°C 80% 3.8 mph E6.1 kmh E 6.0 mph9.7 kmh 29.23 in989.8 mb 0.00 in0.0 mm 0.00 in0.0 mm 0.02 in0.5 mm
09:10 AM 43.9°F6.6°C 38.1°F3.4°C 80% 3.6 mph ESE5.8 kmh ESE 6.0 mph9.7 kmh 29.23 in989.8 mb 0.00 in0.0 mm 0.00 in0.0 mm 0.02 in0.5 mm
09:20 AM 43.9°F6.6°C 38.1°F3.4°C 80% 5.0 mph S8.0 kmh S 9.2 mph14.8 kmh 29.23 in989.8 mb 0.00 in0.0 mm 0.00 in0.0 mm 0.02 in0.5 mm
09:30 AM 43.9°F6.6°C 38.1°F3.4°C 80% 3.9 mph S6.3 kmh S 6.9 mph11.1 kmh 29.22 in989.5 mb 0.01 in0.3 mm 0.06 in1.5 mm 0.04 in1.0 mm
09:40 AM 43.7°F6.5°C 37.9°F3.3°C 80% 4.3 mph S6.9 kmh S 6.9 mph11.1 kmh 29.22 in989.5 mb 0.04 in1.0 mm 0.18 in4.6 mm 0.06 in1.5 mm
09:50 AM 42.8°F6.0°C 37.1°F2.8°C 80% 5.7 mph S9.2 kmh S 13.0 mph20.9 kmh 29.22 in989.5 mb 0.05 in1.3 mm 0.06 in1.5 mm 0.07 in1.8 mm
10:00 AM 42.6°F5.9°C 36.9°F2.7°C 80% 5.5 mph SW8.9 kmh SW 13.0 mph20.9 kmh 29.22 in989.5 mb 0.05 in1.3 mm 0.00 in0.0 mm 0.07 in1.8 mm
10:10 AM 42.8°F6.0°C 37.1°F2.8°C 80% 6.8 mph S10.9 kmh S 9.2 mph14.8 kmh 29.21 in989.2 mb 0.05 in1.3 mm 0.00 in0.0 mm 0.07 in1.8 mm
10:20 AM 42.8°F6.0°C 37.1°F2.8°C 80% 4.7 mph SSW7.6 kmh SSW 6.9 mph11.1 kmh 29.21 in989.2 mb 0.06 in1.5 mm 0.06 in1.5 mm 0.08 in2.0 mm
10:30 AM 42.6°F5.9°C 36.9°F2.7°C 80% 4.0 mph S6.4 kmh S 6.0 mph9.7 kmh 29.20 in988.8 mb 0.05 in1.3 mm 0.00 in0.0 mm 0.08 in2.0 mm
10:40 AM 42.4°F5.8°C 36.7°F2.6°C 80% 3.8 mph SE6.1 kmh SE 6.9 mph11.1 kmh 29.20 in988.8 mb 0.05 in1.3 mm 0.00 in0.0 mm 0.11 in2.8 mm
10:50 AM 42.1°F5.6°C 36.4°F2.4°C 80% 6.9 mph SSW11.1 kmh SSW 11.4 mph18.3 kmh 29.20 in988.8 mb 0.05 in1.3 mm 0.00 in0.0 mm 0.12 in3.0 mm
11:00 AM 42.4°F5.8°C 37.0°F2.8°C 81% 5.0 mph SE8.0 kmh SE 8.3 mph13.4 kmh 29.20 in988.8 mb 0.06 in1.5 mm 0.01 in0.3 mm 0.13 in3.3 mm
11:10 AM 42.8°F6.0°C 37.4°F3.0°C 81% 6.8 mph S10.9 kmh S 10.7 mph17.2 kmh 29.19 in988.5 mb 0.05 in1.3 mm 0.00 in0.0 mm 0.13 in3.3 mm
11:20 AM 43.0°F6.1°C 37.6°F3.1°C 81% 4.8 mph S7.7 kmh S 7.6 mph12.2 kmh 29.19 in988.5 mb 0.07 in1.8 mm 0.12 in3.0 mm 0.15 in3.8 mm
11:30 AM 43.5°F6.4°C 38.1°F3.4°C 81% 4.6 mph S7.4 kmh S 10.7 mph17.2 kmh 29.18 in988.1 mb 0.07 in1.8 mm 0.00 in0.0 mm 0.15 in3.8 mm
11:40 AM 43.7°F6.5°C 38.3°F3.5°C 81% 5.2 mph SSW8.4 kmh SSW 12.1 mph19.5 kmh 29.18 in988.1 mb 0.06 in1.5 mm 0.00 in0.0 mm 0.17 in4.3 mm
11:50 AM 44.1°F6.7°C 38.6°F3.7°C 81% 5.7 mph ESE9.2 kmh ESE 12.1 mph19.5 kmh 29.17 in987.8 mb 0.06 in1.5 mm 0.00 in0.0 mm 0.18 in4.6 mm
12:00 PM 43.9°F6.6°C 38.4°F3.6°C 81% 6.5 mph S10.5 kmh S 9.8 mph15.8 kmh 29.17 in987.8 mb 0.06 in1.5 mm 0.00 in0.0 mm 0.19 in4.8 mm
12:10 PM 44.6°F7.0°C 39.5°F4.2°C 82% 8.6 mph S13.8 kmh S 11.4 mph18.3 kmh 29.17 in987.8 mb 0.06 in1.5 mm 0.00 in0.0 mm 0.20 in5.1 mm
12:20 PM 45.0°F7.2°C 39.8°F4.3°C 82% 8.6 mph SW13.8 kmh SW 11.4 mph18.3 kmh 29.16 in987.5 mb 0.05 in1.3 mm 0.00 in0.0 mm 0.20 in5.1 mm
12:30 PM 43.5°F6.4°C 38.1°F3.4°C 81% 11.2 mph SW18.0 kmh SW 15.2 mph24.5 kmh 29.16 in987.5 mb 0.06 in1.5 mm 0.06 in1.5 mm 0.21 in5.3 mm
12:40 PM 43.9°F6.6°C 38.4°F3.6°C 81% 8.4 mph SSW13.5 kmh SSW 14.5 mph23.3 kmh 29.16 in987.5 mb 0.05 in1.3 mm 0.00 in0.0 mm 0.21 in5.3 mm
12:50 PM 45.0°F7.2°C 39.5°F4.2°C 81% 7.8 mph SSW12.6 kmh SSW 12.1 mph19.5 kmh 29.16 in987.5 mb 0.04 in1.0 mm 0.00 in0.0 mm 0.21 in5.3 mm
01:00 PM 45.5°F7.5°C 37.7°F3.2°C 74% 8.1 mph S13.0 kmh S 12.1 mph19.5 kmh 29.16 in987.5 mb 0.02 in0.5 mm 0.00 in0.0 mm 0.21 in5.3 mm
01:10 PM 46.6°F8.1°C 38.0°F3.3°C 72% 8.9 mph SW14.3 kmh SW 14.5 mph23.3 kmh 29.16 in987.5 mb 0.01 in0.3 mm 0.00 in0.0 mm 0.21 in5.3 mm
01:20 PM 49.3°F9.6°C 39.9°F4.4°C 70% 8.7 mph SSW14.0 kmh SSW 11.4 mph18.3 kmh 29.16 in987.5 mb 0.01 in0.3 mm 0.00 in0.0 mm 0.21 in5.3 mm
01:30 PM 49.3°F9.6°C 36.8°F2.7°C 62% 10.9 mph SSW17.5 kmh SSW 15.2 mph24.5 kmh 29.16 in987.5 mb 0.01 in0.3 mm 0.00 in0.0 mm 0.22 in5.6 mm
01:40 PM 47.5°F8.6°C 35.5°F1.9°C 63% 11.2 mph SW18.0 kmh SW 15.2 mph24.5 kmh 29.16 in987.5 mb 0.01 in0.3 mm 0.00 in0.0 mm 0.22 in5.6 mm
01:50 PM 47.8°F8.8°C 35.9°F2.2°C 63% 12.4 mph S20.0 kmh S 16.8 mph27.0 kmh 29.16 in987.5 mb 0.01 in0.3 mm 0.00 in0.0 mm 0.22 in5.6 mm
02:00 PM 47.5°F8.6°C 36.7°F2.6°C 66% 9.0 mph SSW14.5 kmh SSW 13.0 mph20.9 kmh 29.15 in987.1 mb 0.01 in0.3 mm 0.00 in0.0 mm 0.22 in5.6 mm
02:10 PM 47.8°F8.8°C 37.8°F3.2°C 68% 6.5 mph SSW10.5 kmh SSW 9.8 mph15.8 kmh 29.15 in987.1 mb 0.01 in0.3 mm 0.00 in0.0 mm 0.22 in5.6 mm
02:20 PM 47.8°F8.8°C 37.4°F3.0°C 67% 10.4 mph SSW16.7 kmh SSW 16.8 mph27.0 kmh 29.14 in986.8 mb 0.01 in0.3 mm 0.00 in0.0 mm 0.22 in5.6 mm
02:30 PM 47.8°F8.8°C 37.4°F3.0°C 67% 9.3 mph SSW15.0 kmh SSW 14.5 mph23.3 kmh 29.14 in986.8 mb 0.00 in0.0 mm 0.00 in0.0 mm 0.22 in5.6 mm
02:40 PM 49.5°F9.7°C 37.4°F3.0°C 63% 8.0 mph S12.9 kmh S 12.1 mph19.5 kmh 29.14 in986.8 mb 0.00 in0.0 mm 0.00 in0.0 mm 0.22 in5.6 mm
02:50 PM 48.9°F9.4°C 36.1°F2.3°C 61% 12.7 mph SSW20.4 kmh SSW 17.4 mph28.0 kmh 29.13 in986.5 mb 0.00 in0.0 mm 0.00 in0.0 mm 0.22 in5.6 mm
03:00 PM 48.9°F9.4°C 36.5°F2.5°C 62% 14.1 mph S22.7 kmh S 19.7 mph31.7 kmh 29.13 in986.5 mb 0.00 in0.0 mm 0.00 in0.0 mm 0.22 in5.6 mm
03:10 PM 48.4°F9.1°C 36.0°F2.2°C 62% 14.0 mph S22.5 kmh S 19.7 mph31.7 kmh 29.13 in986.5 mb 0.00 in0.0 mm 0.00 in0.0 mm 0.22 in5.6 mm
03:20 PM 47.1°F8.4°C 36.4°F2.4°C 66% 13.3 mph S21.4 kmh S 16.8 mph27.0 kmh 29.14 in986.8 mb 0.00 in0.0 mm 0.00 in0.0 mm 0.22 in5.6 mm
03:30 PM 46.9°F8.3°C 37.7°F3.2°C 70% 8.8 mph SSW14.2 kmh SSW 11.4 mph18.3 kmh 29.13 in986.5 mb 0.00 in0.0 mm 0.00 in0.0 mm 0.22 in5.6 mm
03:40 PM 45.3°F7.4°C 36.5°F2.5°C 71% 9.2 mph SSW14.8 kmh SSW 13.0 mph20.9 kmh 29.14 in986.8 mb 0.00 in0.0 mm 0.00 in0.0 mm 0.22 in5.6 mm
03:50 PM 46.4°F8.0°C 36.8°F2.7°C 69% 6.9 mph WSW11.1 kmh WSW 12.1 mph19.5 kmh 29.13 in986.5 mb 0.00 in0.0 mm 0.00 in0.0 mm 0.22 in5.6 mm
04:00 PM 46.0°F7.8°C 34.2°F1.2°C 63% 12.4 mph SW20.0 kmh SW 14.5 mph23.3 kmh 29.13 in986.5 mb 0.01 in0.3 mm 0.01 in0.3 mm 0.24 in6.1 mm
04:10 PM 45.9°F7.7°C 34.4°F1.3°C 64% 9.8 mph S15.8 kmh S 13.6 mph21.9 kmh 29.14 in986.8 mb 0.01 in0.3 mm 0.00 in0.0 mm 0.24 in6.1 mm
04:20 PM 45.1°F7.3°C 35.2°F1.8°C 68% 10.5 mph S16.9 kmh S 14.5 mph23.3 kmh 29.14 in986.8 mb 0.01 in0.3 mm 0.00 in0.0 mm 0.24 in6.1 mm
04:30 PM 44.6°F7.0°C 35.4°F1.9°C 70% 9.3 mph SW15.0 kmh SW 16.8 mph27.0 kmh 29.14 in986.8 mb 0.01 in0.3 mm 0.00 in0.0 mm 0.24 in6.1 mm
04:40 PM 43.3°F6.3°C 34.2°F1.2°C 70% 12.5 mph SSW20.1 kmh SSW 19.7 mph31.7 kmh 29.14 in986.8 mb 0.01 in0.3 mm 0.00 in0.0 mm 0.24 in6.1 mm
04:50 PM 42.8°F6.0°C 34.4°F1.3°C 72% 8.8 mph SW14.2 kmh SW 12.1 mph19.5 kmh 29.14 in986.8 mb 0.01 in0.3 mm 0.00 in0.0 mm 0.24 in6.1 mm
05:00 PM 42.3°F5.7°C 34.6°F1.4°C 74% 10.8 mph SSW17.4 kmh SSW 15.2 mph24.5 kmh 29.14 in986.8 mb 0.01 in0.3 mm 0.00 in0.0 mm 0.25 in6.4 mm
05:10 PM 42.3°F5.7°C 34.9°F1.6°C 75% 5.7 mph SSW9.2 kmh SSW 8.3 mph13.4 kmh 29.14 in986.8 mb 0.01 in0.3 mm 0.00 in0.0 mm 0.25 in6.4 mm
05:20 PM 42.1°F5.6°C 35.1°F1.7°C 76% 8.6 mph SSW13.8 kmh SSW 13.0 mph20.9 kmh 29.14 in986.8 mb 0.01 in0.3 mm 0.00 in0.0 mm 0.25 in6.4 mm
05:30 PM 41.9°F5.5°C 35.2°F1.8°C 77% 7.7 mph S12.4 kmh S 12.1 mph19.5 kmh 29.14 in986.8 mb 0.01 in0.3 mm 0.00 in0.0 mm 0.25 in6.4 mm
05:40 PM 41.7°F5.4°C 35.4°F1.9°C 78% 8.2 mph S13.2 kmh S 13.6 mph21.9 kmh 29.14 in986.8 mb 0.01 in0.3 mm 0.00 in0.0 mm 0.25 in6.4 mm
05:50 PM 41.5°F5.3°C 35.2°F1.8°C 78% 6.8 mph SSW10.9 kmh SSW 9.2 mph14.8 kmh 29.15 in987.1 mb 0.01 in0.3 mm 0.00 in0.0 mm 0.25 in6.4 mm
06:00 PM 41.5°F5.3°C 35.5°F1.9°C 79% 5.9 mph SW9.5 kmh SW 9.8 mph15.8 kmh 29.15 in987.1 mb 0.00 in0.0 mm 0.00 in0.0 mm 0.25 in6.4 mm
06:10 PM 41.5°F5.3°C 35.5°F1.9°C 79% 3.9 mph S6.3 kmh S 7.6 mph12.2 kmh 29.15 in987.1 mb 0.00 in0.0 mm 0.00 in0.0 mm 0.25 in6.4 mm
06:20 PM 41.4°F5.2°C 35.7°F2.1°C 80% 5.6 mph S9.0 kmh S 9.8 mph15.8 kmh 29.14 in986.8 mb 0.00 in0.0 mm 0.00 in0.0 mm 0.25 in6.4 mm
06:30 PM 41.2°F5.1°C 35.5°F1.9°C 80% 4.0 mph SW6.4 kmh SW 5.4 mph8.7 kmh 29.14 in986.8 mb 0.00 in0.0 mm 0.00 in0.0 mm 0.25 in6.4 mm
06:40 PM 40.8°F4.9°C 35.1°F1.7°C 80% 4.8 mph SSW7.7 kmh SSW 6.9 mph11.1 kmh 29.15 in987.1 mb 0.00 in0.0 mm 0.00 in0.0 mm 0.25 in6.4 mm
06:50 PM 40.8°F4.9°C 35.1°F1.7°C 80% 4.2 mph S6.8 kmh S 6.0 mph9.7 kmh 29.15 in987.1 mb 0.00 in0.0 mm 0.00 in0.0 mm 0.25 in6.4 mm
07:00 PM 40.8°F4.9°C 35.1°F1.7°C 80% 4.0 mph S6.4 kmh S 6.0 mph9.7 kmh 29.15 in987.1 mb 0.00 in0.0 mm 0.00 in0.0 mm 0.25 in6.4 mm
07:10 PM 40.8°F4.9°C 35.1°F1.7°C 80% 4.1 mph S6.6 kmh S 5.4 mph8.7 kmh 29.15 in987.1 mb 0.00 in0.0 mm 0.00 in0.0 mm 0.25 in6.4 mm
07:20 PM 40.6°F4.8°C 35.0°F1.7°C 80% 3.0 mph SSW4.8 kmh SSW 4.5 mph7.2 kmh 29.15 in987.1 mb 0.00 in0.0 mm 0.00 in0.0 mm 0.25 in6.4 mm
07:30 PM 40.5°F4.7°C 35.1°F1.7°C 81% 4.1 mph SSW6.6 kmh SSW 5.4 mph8.7 kmh 29.16 in987.5 mb 0.00 in0.0 mm 0.00 in0.0 mm 0.25 in6.4 mm
07:40 PM 40.5°F4.7°C 35.1°F1.7°C 81% 4.5 mph S7.2 kmh S 6.0 mph9.7 kmh 29.15 in987.1 mb 0.00 in0.0 mm 0.00 in0.0 mm 0.25 in6.4 mm
07:50 PM 40.3°F4.6°C 34.6°F1.4°C 80% 3.7 mph SSW6.0 kmh SSW 7.6 mph12.2 kmh 29.15 in987.1 mb 0.00 in0.0 mm 0.00 in0.0 mm 0.25 in6.4 mm
08:00 PM 40.1°F4.5°C 34.4°F1.3°C 80% 4.1 mph SSW6.6 kmh SSW 5.4 mph8.7 kmh 29.15 in987.1 mb 0.00 in0.0 mm 0.00 in0.0 mm 0.25 in6.4 mm
08:10 PM 40.1°F4.5°C 34.4°F1.3°C 80% 7.1 mph S11.4 kmh S 9.8 mph15.8 kmh 29.16 in987.5 mb 0.00 in0.0 mm 0.00 in0.0 mm 0.25 in6.4 mm
08:20 PM 40.3°F4.6°C 34.6°F1.4°C 80% 7.4 mph S11.9 kmh S 9.8 mph15.8 kmh 29.16 in987.5 mb 0.00 in0.0 mm 0.00 in0.0 mm 0.25 in6.4 mm
08:30 PM 40.3°F4.6°C 34.6°F1.4°C 80% 6.8 mph SSW10.9 kmh SSW 10.7 mph17.2 kmh 29.16 in987.5 mb 0.00 in0.0 mm 0.00 in0.0 mm 0.25 in6.4 mm
08:40 PM 40.1°F4.5°C 34.4°F1.3°C 80% 6.2 mph S10.0 kmh S 9.2 mph14.8 kmh 29.16 in987.5 mb 0.00 in0.0 mm 0.00 in0.0 mm 0.25 in6.4 mm
08:50 PM 39.7°F4.3°C 34.1°F1.2°C 80% 4.0 mph S6.4 kmh S 8.3 mph13.4 kmh 29.16 in987.5 mb 0.00 in0.0 mm 0.00 in0.0 mm 0.25 in6.4 mm
09:00 PM 39.4°F4.1°C 33.7°F0.9°C 80% 3.1 mph SSW5.0 kmh SSW 4.5 mph7.2 kmh 29.16 in987.5 mb 0.00 in0.0 mm 0.00 in0.0 mm 0.25 in6.4 mm
09:10 PM 39.2°F4.0°C 33.6°F0.9°C 80% 4.3 mph SSW6.9 kmh SSW 7.6 mph12.2 kmh 29.16 in987.5 mb 0.00 in0.0 mm 0.00 in0.0 mm 0.25 in6.4 mm
09:20 PM 39.0°F3.9°C 33.4°F0.8°C 80% 3.4 mph S5.5 kmh S 5.4 mph8.7 kmh 29.18 in988.1 mb 0.00 in0.0 mm 0.00 in0.0 mm 0.25 in6.4 mm
09:30 PM 38.7°F3.7°C 33.0°F0.6°C 80% 3.5 mph S5.6 kmh S 5.4 mph8.7 kmh 29.17 in987.8 mb 0.00 in0.0 mm 0.00 in0.0 mm 0.25 in6.4 mm
09:40 PM 38.5°F3.6°C 32.9°F0.5°C 80% 3.4 mph S5.5 kmh S 3.8 mph6.1 kmh 29.17 in987.8 mb 0.00 in0.0 mm 0.00 in0.0 mm 0.25 in6.4 mm
09:50 PM 38.5°F3.6°C 32.9°F0.5°C 80% 4.0 mph S6.4 kmh S 6.0 mph9.7 kmh 29.17 in987.8 mb 0.00 in0.0 mm 0.00 in0.0 mm 0.25 in6.4 mm
10:00 PM 38.5°F3.6°C 33.2°F0.7°C 81% 3.9 mph S6.3 kmh S 5.4 mph8.7 kmh 29.17 in987.8 mb 0.00 in0.0 mm 0.00 in0.0 mm 0.25 in6.4 mm
10:10 PM 37.9°F3.3°C 32.3°F0.2°C 80% 1.1 mph SSE1.8 kmh SSE 2.2 mph3.5 kmh 29.16 in987.5 mb 0.00 in0.0 mm 0.00 in0.0 mm 0.25 in6.4 mm
10:20 PM 37.4°F3.0°C 31.8°F-0.1°C 80% 1.4 mph ESE2.3 kmh ESE 2.2 mph3.5 kmh 29.17 in987.8 mb 0.00 in0.0 mm 0.00 in0.0 mm 0.25 in6.4 mm
10:30 PM 37.2°F2.9°C 31.6°F-0.2°C 80% 0.4 mph SE0.6 kmh SE 1.6 mph2.6 kmh 29.16 in987.5 mb 0.00 in0.0 mm 0.00 in0.0 mm 0.25 in6.4 mm
10:40 PM 37.0°F2.8°C 31.5°F-0.3°C 80% Calm Calm -- 29.17 in987.8 mb 0.00 in0.0 mm 0.00 in0.0 mm 0.25 in6.4 mm
10:50 PM 36.5°F2.5°C 30.9°F-0.6°C 80% Calm Calm -- 29.17 in987.8 mb 0.00 in0.0 mm 0.00 in0.0 mm 0.25 in6.4 mm
11:00 PM 36.3°F2.4°C 30.8°F-0.7°C 80% Calm Calm -- 29.17 in987.8 mb 0.00 in0.0 mm 0.00 in0.0 mm 0.25 in6.4 mm
11:10 PM 35.8°F2.1°C 30.2°F-1.0°C 80% Calm Calm -- 29.17 in987.8 mb 0.00 in0.0 mm 0.00 in0.0 mm 0.25 in6.4 mm
11:20 PM 35.4°F1.9°C 29.9°F-1.2°C 80% Calm Calm -- 29.17 in987.8 mb 0.00 in0.0 mm 0.00 in0.0 mm 0.25 in6.4 mm
11:30 PM 35.4°F1.9°C 29.9°F-1.2°C 80% Calm Calm -- 29.17 in987.8 mb 0.00 in0.0 mm 0.00 in0.0 mm 0.25 in6.4 mm
11:40 PM 35.4°F1.9°C 29.9°F-1.2°C 80% Calm Calm -- 29.17 in987.8 mb 0.00 in0.0 mm 0.00 in0.0 mm 0.25 in6.4 mm
11:50 PM 35.4°F1.9°C 29.9°F-1.2°C 80% Calm Calm -- 29.16 in987.5 mb 0.00 in0.0 mm 0.00 in0.0 mm 0.25 in6.4 mm